Time;durP1;ratioP1;P1;durP2;ratioP2;P2;SDS_P1;SDS_P2;PMS_P1;PMS_P2;Temp;Humidity;BMP_temperature;BMP_pressure;BME280_temperature;BME280_humidity;BME280_pressure;Samples;Min_cycle;Max_cycle;Signal;HPM_P1;HPM_P2
2021/12/15 00:02:27;;;;;;;6.18;5.57;;;13.30;82.10;;;;;;5027169;28;20078;-74
2021/12/15 00:04:55;;;;;;;5.70;4.60;;;13.30;82.10;;;;;;5027975;28;20042;-74
2021/12/15 00:07:23;;;;;;;6.20;5.10;;;13.30;82.10;;;;;;5028777;28;20481;-74
2021/12/15 00:09:49;;;;;;;5.38;4.82;;;13.30;82.10;;;;;;5027599;28;20382;-74
2021/12/15 00:12:16;;;;;;;5.13;4.35;;;13.30;82.10;;;;;;5027121;28;20053;-74
2021/12/15 00:14:45;;;;;;;4.80;4.10;;;13.30;82.10;;;;;;5026821;28;20393;-74
2021/12/15 00:17:11;;;;;;;6.28;4.50;;;13.30;82.60;;;;;;5028708;28;20033;-73
2021/12/15 00:19:38;;;;;;;5.22;4.78;;;13.30;82.00;;;;;;5028138;28;20064;-74
2021/12/15 00:22:05;;;;;;;5.45;4.57;;;13.30;82.10;;;;;;5028035;28;20064;-73
2021/12/15 00:24:31;;;;;;;6.45;5.53;;;13.30;82.10;;;;;;5027322;28;20481;-74
2021/12/15 00:26:58;;;;;;;5.90;5.03;;;13.30;82.00;;;;;;5028048;28;20524;-74
2021/12/15 00:29:24;;;;;;;4.93;4.43;;;13.30;82.00;;;;;;5026129;28;20499;-73
2021/12/15 00:31:52;;;;;;;7.20;5.05;;;13.30;82.00;;;;;;5026457;28;20045;-74
2021/12/15 00:34:19;;;;;;;6.07;4.20;;;13.30;82.00;;;;;;5026410;28;20030;-73
2021/12/15 00:36:45;;;;;;;5.00;4.32;;;13.30;82.00;;;;;;5027468;28;20116;-74
2021/12/15 00:39:18;;;;;;;4.90;4.13;;;13.30;82.00;;;;;;5027009;28;20534;-74
2021/12/15 00:41:45;;;;;;;6.45;4.35;;;13.30;82.00;;;;;;5027719;28;20068;-74
2021/12/15 00:44:12;;;;;;;5.72;4.82;;;13.30;81.90;;;;;;5010295;28;20045;-73
2021/12/15 00:46:38;;;;;;;4.53;4.13;;;13.30;81.90;;;;;;5027061;28;20393;-73
2021/12/15 00:49:06;;;;;;;4.80;4.30;;;13.30;81.90;;;;;;5027822;28;20071;-73
2021/12/15 00:51:32;;;;;;;7.85;4.60;;;13.30;81.90;;;;;;5027821;28;20041;-75
2021/12/15 00:53:58;;;;;;;4.75;4.07;;;13.30;81.80;;;;;;5025642;28;20030;-76
2021/12/15 00:56:24;;;;;;;5.57;4.47;;;13.30;81.80;;;;;;5027804;28;20094;-75
2021/12/15 00:58:50;;;;;;;5.13;4.22;;;13.30;81.80;;;;;;5025897;28;20029;-73
2021/12/15 01:01:17;;;;;;;4.65;4.22;;;13.30;81.90;;;;;;5027095;28;20043;-75
2021/12/15 01:03:46;;;;;;;6.10;4.15;;;13.30;81.80;;;;;;5027046;28;20579;-75
2021/12/15 01:06:17;;;;;;;6.93;5.45;;;13.30;81.80;;;;;;5026104;28;20029;-75
2021/12/15 01:08:48;;;;;;;5.55;4.78;;;13.30;81.80;;;;;;5027203;28;20025;-76
2021/12/15 01:11:44;;;;;;;5.32;4.78;;;13.30;81.80;;;;;;5027419;28;20503;-75
2021/12/15 01:19:59;;;;;;;6.68;4.75;;;13.30;81.70;;;;;;5022720;28;20037;-75
2021/12/15 01:22:31;;;;;;;5.55;4.63;;;13.30;81.70;;;;;;5027046;28;20099;-75
2021/12/15 01:25:01;;;;;;;7.18;4.18;;;13.30;81.70;;;;;;5026579;28;20087;-75
2021/12/15 01:27:27;;;;;;;5.70;4.45;;;13.30;81.70;;;;;;5026180;28;20440;-75
2021/12/15 01:29:54;;;;;;;5.15;4.15;;;13.30;81.70;;;;;;5026493;28;20047;-75
2021/12/15 01:32:20;;;;;;;5.88;4.40;;;13.30;81.70;;;;;;5018075;28;20438;-75
2021/12/15 01:34:46;;;;;;;5.18;4.68;;;13.30;81.70;;;;;;5024557;28;20099;-75
2021/12/15 01:37:13;;;;;;;5.20;4.15;;;13.30;81.70;;;;;;5026377;28;20221;-75
2021/12/15 01:39:40;;;;;;;5.30;4.15;;;13.20;81.50;;;;;;5025813;28;20699;-75
2021/12/15 01:42:07;;;;;;;6.75;4.93;;;13.30;81.70;;;;;;5025533;28;20063;-75
2021/12/15 01:47:18;;;;;;;5.53;4.20;;;13.20;81.50;;;;;;5026664;28;20033;-75
2021/12/15 01:49:48;;;;;;;5.80;4.85;;;13.20;81.50;;;;;;5025968;28;20041;-75
2021/12/15 01:52:29;;;;;;;5.70;4.40;;;13.20;81.60;;;;;;5026914;28;20136;-75
2021/12/15 01:55:13;;;;;;;4.97;4.50;;;13.20;81.50;;;;;;5024520;28;20205;-75
2021/12/15 01:57:41;;;;;;;6.70;4.53;;;13.20;81.60;;;;;;5025324;28;20039;-74
2021/12/15 02:00:19;;;;;;;6.57;4.78;;;13.20;81.50;;;;;;5025054;28;20029;-75
2021/12/15 02:02:46;;;;;;;6.90;5.00;;;13.20;81.50;;;;;;5025135;28;20045;-75
2021/12/15 02:05:12;;;;;;;5.80;4.22;;;13.20;81.50;;;;;;5024977;28;20409;-75
2021/12/15 02:07:41;;;;;;;7.25;4.47;;;13.20;81.50;;;;;;5025019;28;20400;-75
2021/12/15 02:10:08;;;;;;;5.63;5.07;;;13.20;81.50;;;;;;5026176;28;20030;-74
2021/12/15 02:12:40;;;;;;;4.90;4.28;;;13.20;81.50;;;;;;5025090;28;20386;-75
2021/12/15 02:15:31;;;;;;;5.95;4.90;;;13.20;81.40;;;;;;5006341;28;20037;-75
2021/12/15 02:17:59;;;;;;;5.85;4.78;;;13.20;81.40;;;;;;5003781;28;20060;-75
2021/12/15 02:20:36;;;;;;;4.65;4.25;;;13.30;81.50;;;;;;5023295;28;20053;-75
2021/12/15 02:23:05;;;;;;;5.63;4.72;;;13.20;81.40;;;;;;5025536;28;20382;-74
2021/12/15 02:25:31;;;;;;;6.45;4.30;;;13.30;81.50;;;;;;5025771;28;20489;-75
2021/12/15 02:28:00;;;;;;;4.72;4.10;;;13.30;81.40;;;;;;5024899;28;20029;-74
2021/12/15 02:33:58;;;;;;;5.18;4.28;;;13.20;81.30;;;;;;5019973;28;20503;-75
2021/12/15 02:38:43;;;;;;;5.85;5.32;;;13.20;81.20;;;;;;5031320;28;20583;-75
2021/12/15 02:41:13;;;;;;;7.35;5.10;;;13.20;81.20;;;;;;5027018;28;20029;-75
2021/12/15 02:43:40;;;;;;;5.47;4.97;;;13.20;81.20;;;;;;5011793;28;20041;-75
2021/12/15 02:46:07;;;;;;;8.07;5.00;;;13.20;81.30;;;;;;5020408;28;20472;-74
2021/12/15 02:48:33;;;;;;;8.52;4.43;;;13.20;81.20;;;;;;5034691;28;20116;-75
2021/12/15 02:51:00;;;;;;;6.10;4.97;;;13.20;81.20;;;;;;5018715;28;20045;-75
2021/12/15 02:53:26;;;;;;;6.10;4.75;;;13.20;81.20;;;;;;5022633;28;20030;-75
2021/12/15 02:55:52;;;;;;;6.10;5.00;;;13.20;81.20;;;;;;5029215;28;20037;-74
2021/12/15 02:58:20;;;;;;;6.88;4.80;;;13.20;81.20;;;;;;5021872;28;20026;-75
2021/12/15 03:00:57;;;;;;;6.25;4.43;;;13.20;81.20;;;;;;5013259;28;20018;-75
2021/12/15 03:06:04;;;;;;;5.05;4.28;;;13.20;81.20;;;;;;5014536;28;20030;-75
2021/12/15 03:16:45;;;;;;;6.30;5.32;;;13.20;81.10;;;;;;5034205;28;20123;-76
2021/12/15 03:19:12;;;;;;;5.88;5.05;;;13.20;81.00;;;;;;5034504;28;20029;-74
2021/12/15 03:21:38;;;;;;;6.03;5.07;;;13.20;81.00;;;;;;5033364;28;20033;-76
2021/12/15 03:24:11;;;;;;;8.18;4.97;;;13.20;81.00;;;;;;5034185;28;20033;-75
2021/12/15 03:26:45;;;;;;;5.70;4.25;;;13.20;81.00;;;;;;5033865;28;20025;-75
2021/12/15 03:37:26;;;;;;;6.47;5.60;;;13.20;81.00;;;;;;5028089;28;20040;-75
2021/12/15 03:40:08;;;;;;;6.78;5.35;;;13.20;81.00;;;;;;5027372;28;20549;-75
2021/12/15 03:42:41;;;;;;;7.03;5.13;;;13.20;81.00;;;;;;5034172;28;20673;-75
2021/12/15 03:45:12;;;;;;;8.68;6.13;;;13.20;81.00;;;;;;5018846;28;20041;-75
2021/12/15 03:47:43;;;;;;;6.22;5.60;;;13.20;80.90;;;;;;5019074;28;20109;-75
2021/12/15 03:50:12;;;;;;;6.65;4.88;;;13.20;80.90;;;;;;5034172;28;20024;-74
2021/12/15 03:52:38;;;;;;;8.52;5.43;;;13.20;80.90;;;;;;5033435;28;20034;-75
2021/12/15 03:55:06;;;;;;;5.72;4.90;;;13.20;81.00;;;;;;5033084;28;20031;-75
2021/12/15 03:57:32;;;;;;;5.85;4.68;;;13.20;80.90;;;;;;5033488;28;20183;-75
2021/12/15 03:59:58;;;;;;;7.50;6.72;;;13.10;80.70;;;;;;5033458;28;20025;-75
2021/12/15 04:02:25;;;;;;;5.70;4.90;;;13.20;80.90;;;;;;5033737;28;20029;-75
2021/12/15 04:04:51;;;;;;;6.10;5.20;;;13.20;80.90;;;;;;5033246;28;20452;-74
2021/12/15 04:07:19;;;;;;;5.57;5.05;;;13.20;80.90;;;;;;5033259;28;20029;-74
2021/12/15 04:09:46;;;;;;;5.18;4.57;;;13.20;80.80;;;;;;5031884;28;20091;-74
2021/12/15 04:12:14;;;;;;;10.20;5.78;;;13.20;80.80;;;;;;5033046;28;20042;-74
2021/12/15 04:14:45;;;;;;;8.00;5.60;;;13.20;80.80;;;;;;5033502;28;20160;-75
2021/12/15 04:17:32;;;;;;;9.85;5.78;;;13.20;80.80;;;;;;5031807;28;20032;-75
2021/12/15 04:20:09;;;;;;;8.65;5.63;;;13.20;80.80;;;;;;5048464;28;20032;-75
2021/12/15 04:22:35;;;;;;;6.72;5.32;;;13.20;80.80;;;;;;5032991;28;20124;-75
2021/12/15 04:25:07;;;;;;;5.95;5.32;;;13.20;80.80;;;;;;5032391;28;20033;-75
2021/12/15 04:27:33;;;;;;;7.80;5.00;;;13.20;80.70;;;;;;5032869;28;20075;-74
2021/12/15 04:29:59;;;;;;;6.18;5.45;;;13.20;80.80;;;;;;5032872;28;20040;-75
2021/12/15 04:32:34;;;;;;;8.48;6.20;;;13.20;80.70;;;;;;5032712;28;20317;-74
2021/12/15 04:35:01;;;;;;;6.88;5.63;;;13.20;80.70;;;;;;5031571;28;20026;-75
2021/12/15 04:37:26;;;;;;;6.22;5.68;;;13.20;80.70;;;;;;5032890;28;20121;-75
2021/12/15 04:39:53;;;;;;;9.15;5.45;;;13.10;80.60;;;;;;5016264;28;20116;-75
2021/12/15 04:42:21;;;;;;;7.22;5.85;;;13.10;80.60;;;;;;5012953;28;20022;-74
2021/12/15 04:44:48;;;;;;;8.18;5.97;;;13.10;80.60;;;;;;5011196;28;20129;-75
2021/12/15 04:47:15;;;;;;;6.07;5.47;;;13.10;80.60;;;;;;5013119;28;20385;-75
2021/12/15 04:49:45;;;;;;;8.57;5.72;;;13.10;80.60;;;;;;5012380;28;20033;-74
2021/12/15 04:52:13;;;;;;;7.25;5.22;;;13.10;81.10;;;;;;5013007;28;20522;-75
2021/12/15 04:54:40;;;;;;;11.75;6.97;;;13.10;80.60;;;;;;5012442;28;20045;-75
2021/12/15 04:57:06;;;;;;;7.00;6.13;;;13.10;80.60;;;;;;5011899;28;20034;-75
2021/12/15 04:59:33;;;;;;;7.57;5.85;;;13.10;80.60;;;;;;5012508;28;20026;-75
2021/12/15 05:01:59;;;;;;;9.27;5.72;;;13.20;80.70;;;;;;5012292;28;20112;-75
2021/12/15 05:04:25;;;;;;;8.70;5.63;;;13.10;80.50;;;;;;5012255;28;20149;-75
2021/12/15 05:06:51;;;;;;;7.68;5.40;;;13.20;80.70;;;;;;5011281;28;20545;-74
2021/12/15 05:09:18;;;;;;;8.13;5.50;;;13.10;80.50;;;;;;5012261;28;20037;-75
2021/12/15 05:11:47;;;;;;;7.72;5.85;;;13.10;80.50;;;;;;5012196;28;20113;-75
2021/12/15 05:14:14;;;;;;;7.72;6.30;;;13.20;80.60;;;;;;5012373;28;20368;-75
2021/12/15 05:16:40;;;;;;;7.30;6.22;;;13.10;80.50;;;;;;5012044;28;20129;-75
2021/12/15 05:19:07;;;;;;;9.23;6.00;;;13.20;80.70;;;;;;5012089;28;20037;-74
2021/12/15 05:21:33;;;;;;;7.32;5.55;;;13.10;80.50;;;;;;5011917;28;20504;-75
2021/12/15 05:24:08;;;;;;;7.30;6.20;;;13.10;80.50;;;;;;5011715;28;20397;-75
2021/12/15 05:26:34;;;;;;;7.57;6.00;;;13.10;80.50;;;;;;5010337;28;20069;-75
2021/12/15 05:29:00;;;;;;;6.75;5.57;;;13.10;80.50;;;;;;5012005;28;20072;-74
2021/12/15 05:31:26;;;;;;;7.20;6.07;;;13.10;80.50;;;;;;5011973;28;20507;-75
2021/12/15 05:33:52;;;;;;;7.43;6.15;;;13.10;80.50;;;;;;5010303;28;20037;-75
2021/12/15 05:36:18;;;;;;;7.47;6.32;;;13.10;80.50;;;;;;5010977;28;20164;-75
2021/12/15 05:38:44;;;;;;;8.75;5.90;;;13.10;80.50;;;;;;5017905;28;20047;-75
2021/12/15 05:41:10;;;;;;;7.95;5.90;;;13.10;80.50;;;;;;5031562;28;20489;-75
2021/12/15 05:43:37;;;;;;;8.13;5.78;;;13.10;80.50;;;;;;5030021;28;20476;-74
2021/12/15 05:46:03;;;;;;;6.40;5.55;;;13.10;80.60;;;;;;5025170;28;20057;-75
2021/12/15 05:48:29;;;;;;;7.65;5.80;;;13.10;80.60;;;;;;5022378;28;20021;-75
2021/12/15 05:50:56;;;;;;;7.75;6.10;;;13.10;80.60;;;;;;5023544;28;20026;-75
2021/12/15 05:53:22;;;;;;;8.15;6.32;;;13.10;80.50;;;;;;5027393;28;20141;-75
2021/12/15 05:55:48;;;;;;;11.52;7.65;;;13.10;80.50;;;;;;5027130;28;20037;-74
2021/12/15 05:58:14;;;;;;;7.43;6.35;;;13.10;80.50;;;;;;5027945;28;20034;-75
2021/12/15 06:00:42;;;;;;;7.30;6.28;;;13.10;80.50;;;;;;5027647;28;20037;-75
2021/12/15 06:03:08;;;;;;;7.50;6.70;;;13.10;80.50;;;;;;5016128;28;20026;-75
2021/12/15 06:05:36;;;;;;;6.47;5.80;;;13.10;80.50;;;;;;5006600;28;20037;-76
2021/12/15 06:08:03;;;;;;;7.65;6.45;;;13.10;80.40;;;;;;5012024;28;20026;-75
2021/12/15 06:10:30;;;;;;;9.45;7.65;;;13.10;80.40;;;;;;5007415;28;20030;-74
2021/12/15 06:12:58;;;;;;;7.82;6.07;;;13.10;80.40;;;;;;5024643;28;20033;-74
2021/12/15 06:15:28;;;;;;;7.03;5.72;;;13.10;80.40;;;;;;5026559;28;20064;-75
2021/12/15 06:18:01;;;;;;;8.35;6.22;;;13.10;80.40;;;;;;5026228;28;20045;-75
2021/12/15 06:20:28;;;;;;;6.82;5.90;;;13.10;80.40;;;;;;5025677;28;20485;-75
2021/12/15 06:22:55;;;;;;;7.35;6.68;;;13.10;80.40;;;;;;5026069;28;20033;-75
2021/12/15 06:25:22;;;;;;;7.70;5.95;;;13.10;80.40;;;;;;5025320;28;20552;-74
2021/12/15 06:27:48;;;;;;;10.20;6.47;;;13.10;80.40;;;;;;5024599;28;20496;-76
2021/12/15 06:30:14;;;;;;;8.80;6.28;;;13.10;80.40;;;;;;5026833;28;20030;-75
2021/12/15 06:32:41;;;;;;;8.85;7.95;;;13.10;80.40;;;;;;5025679;28;20048;-74
2021/12/15 06:35:08;;;;;;;8.95;6.63;;;13.10;80.40;;;;;;5025861;28;20117;-74
2021/12/15 06:37:34;;;;;;;8.15;7.28;;;13.10;80.40;;;;;;5024921;28;20029;-75
2021/12/15 06:40:00;;;;;;;7.80;6.57;;;13.10;80.40;;;;;;5025448;28;20037;-74
2021/12/15 06:42:27;;;;;;;9.88;6.63;;;13.20;80.80;;;;;;5025339;28;20029;-75
2021/12/15 06:45:18;;;;;;;8.25;6.82;;;13.20;80.80;;;;;;5025923;28;20041;-74
2021/12/15 06:58:37;;;;;;;9.00;6.10;;;13.30;81.20;;;;;;5025465;28;20064;-74
2021/12/15 07:01:04;;;;;;;11.57;6.07;;;13.30;81.10;;;;;;5026216;28;20049;-74
2021/12/15 07:03:30;;;;;;;7.70;5.85;;;13.30;81.20;;;;;;5026432;28;20447;-75
2021/12/15 07:05:56;;;;;;;10.00;7.32;;;13.30;81.10;;;;;;5026359;28;20094;-75
2021/12/15 07:08:26;;;;;;;10.55;7.25;;;13.30;81.20;;;;;;5025975;28;20079;-75
2021/12/15 07:10:54;;;;;;;10.52;8.23;;;13.30;81.20;;;;;;5022039;28;20045;-75
2021/12/15 07:13:21;;;;;;;8.63;6.70;;;13.30;81.20;;;;;;5020841;28;20021;-75
2021/12/15 07:15:58;;;;;;;8.10;7.03;;;13.30;81.20;;;;;;5024190;28;20036;-74
2021/12/15 07:18:27;;;;;;;7.85;6.85;;;13.30;81.20;;;;;;5025133;28;20029;-76
2021/12/15 07:20:55;;;;;;;9.38;7.10;;;13.30;81.20;;;;;;5026449;28;20531;-75
2021/12/15 07:23:22;;;;;;;8.82;6.38;;;13.30;81.20;;;;;;5028208;28;20034;-75
2021/12/15 07:25:51;;;;;;;9.63;7.38;;;13.30;81.20;;;;;;5028551;28;20040;-74
2021/12/15 07:28:19;;;;;;;7.65;6.30;;;13.30;81.20;;;;;;5028600;28;20037;-75
2021/12/15 07:30:47;;;;;;;7.65;6.80;;;13.20;81.00;;;;;;5029244;28;20071;-74
2021/12/15 07:33:13;;;;;;;8.65;6.55;;;13.30;81.10;;;;;;5027782;28;20461;-74
2021/12/15 07:35:39;;;;;;;9.40;7.60;;;13.30;81.10;;;;;;5026825;28;20025;-74
2021/12/15 07:38:07;;;;;;;8.80;7.53;;;13.30;81.10;;;;;;5022349;28;20136;-75
2021/12/15 07:40:34;;;;;;;8.30;7.47;;;13.30;81.10;;;;;;5028113;28;20124;-73
2021/12/15 07:43:09;;;;;;;9.80;8.23;;;13.30;81.10;;;;;;5028263;28;20030;-74
2021/12/15 07:45:40;;;;;;;7.95;7.03;;;13.30;81.10;;;;;;5029002;28;20043;-75
2021/12/15 07:48:07;;;;;;;9.85;7.40;;;13.30;81.00;;;;;;5027979;28;20459;-75
2021/12/15 07:50:35;;;;;;;17.95;8.32;;;13.30;81.00;;;;;;5027588;28;20025;-74
2021/12/15 07:53:01;;;;;;;8.38;7.22;;;13.30;81.00;;;;;;5026908;28;20037;-72
2021/12/15 07:55:27;;;;;;;7.93;7.13;;;13.30;80.90;;;;;;5028237;28;20064;-72
2021/12/15 07:57:54;;;;;;;8.20;7.15;;;13.30;80.90;;;;;;5026693;28;20060;-73
2021/12/15 08:00:21;;;;;;;8.73;7.15;;;13.30;80.90;;;;;;5026813;28;20029;-73
2021/12/15 08:02:47;;;;;;;8.55;7.72;;;13.30;80.90;;;;;;5027073;28;20087;-73
2021/12/15 08:05:14;;;;;;;8.85;7.43;;;13.30;80.90;;;;;;5026845;28;20050;-73
2021/12/15 08:07:40;;;;;;;10.10;7.45;;;13.30;80.80;;;;;;5027906;28;20100;-73
2021/12/15 08:10:10;;;;;;;8.50;7.60;;;13.30;80.80;;;;;;5028427;28;20112;-73
2021/12/15 08:12:38;;;;;;;10.75;8.18;;;13.30;80.80;;;;;;5028222;28;20045;-73
2021/12/15 08:15:06;;;;;;;9.35;7.72;;;13.30;80.80;;;;;;5028275;28;20654;-73
2021/12/15 08:17:32;;;;;;;11.02;7.90;;;13.30;80.80;;;;;;5027708;28;20040;-73
2021/12/15 08:19:58;;;;;;;11.75;8.48;;;13.30;80.80;;;;;;5027739;28;20439;-73
2021/12/15 08:22:24;;;;;;;10.15;8.27;;;13.30;80.80;;;;;;5027192;28;20025;-73
2021/12/15 08:24:50;;;;;;;12.65;8.05;;;13.30;80.80;;;;;;5027981;28;20057;-74
2021/12/15 08:27:16;;;;;;;8.77;7.88;;;13.30;80.80;;;;;;5025619;28;20108;-73
2021/12/15 08:29:42;;;;;;;9.55;8.27;;;13.30;80.80;;;;;;5028113;28;20041;-73
2021/12/15 08:32:08;;;;;;;10.27;9.25;;;13.30;80.80;;;;;;5026975;28;20196;-73
2021/12/15 08:34:34;;;;;;;10.10;8.80;;;13.30;80.80;;;;;;5027480;28;20034;-73
2021/12/15 08:37:00;;;;;;;9.13;7.75;;;13.30;80.80;;;;;;5026058;28;20025;-73
2021/12/15 08:39:26;;;;;;;9.38;8.35;;;13.30;80.70;;;;;;5025829;28;20025;-73
2021/12/15 08:41:52;;;;;;;8.77;7.85;;;13.30;80.80;;;;;;5026321;28;20048;-73
2021/12/15 08:44:18;;;;;;;9.88;8.07;;;13.30;80.70;;;;;;5026744;28;20029;-73
2021/12/15 08:46:47;;;;;;;12.48;8.70;;;13.30;80.70;;;;;;5027438;28;20484;-73
2021/12/15 08:49:16;;;;;;;12.40;8.70;;;13.30;80.70;;;;;;5027475;28;20622;-74
2021/12/15 08:51:44;;;;;;;11.65;8.45;;;13.30;80.70;;;;;;5027233;28;20037;-72
2021/12/15 08:54:14;;;;;;;13.75;9.05;;;13.30;80.60;;;;;;5027324;28;20083;-73
2021/12/15 08:56:42;;;;;;;12.82;9.05;;;13.30;80.50;;;;;;5025222;28;20401;-73
2021/12/15 08:59:09;;;;;;;10.15;8.85;;;13.30;80.50;;;;;;5027134;28;20507;-74
2021/12/15 09:01:36;;;;;;;10.57;8.82;;;13.40;80.70;;;;;;5027228;28;20497;-73
2021/12/15 09:04:03;;;;;;;11.73;8.82;;;13.40;80.60;;;;;;5027073;28;20132;-74
2021/12/15 09:06:30;;;;;;;9.73;8.68;;;13.40;80.60;;;;;;5027218;28;20112;-73
2021/12/15 09:08:56;;;;;;;10.27;8.85;;;13.40;80.50;;;;;;5025700;28;20036;-74
2021/12/15 09:11:26;;;;;;;10.48;9.48;;;13.30;80.30;;;;;;5027460;28;20033;-74
2021/12/15 09:13:54;;;;;;;12.43;8.48;;;13.40;80.50;;;;;;5028877;28;20029;-73
2021/12/15 09:16:23;;;;;;;10.38;8.45;;;13.40;80.40;;;;;;5028129;28;20083;-73
2021/12/15 09:18:50;;;;;;;9.13;8.20;;;13.40;80.40;;;;;;5010257;28;20048;-73
2021/12/15 09:21:19;;;;;;;11.27;9.15;;;13.40;80.40;;;;;;5027008;28;20051;-74
2021/12/15 09:23:45;;;;;;;9.82;8.80;;;13.40;80.30;;;;;;5027716;28;20033;-74
2021/12/15 09:26:12;;;;;;;9.65;8.75;;;13.40;80.30;;;;;;5027736;28;20363;-73
2021/12/15 09:28:39;;;;;;;15.00;9.57;;;13.40;80.30;;;;;;5026539;28;20029;-74
2021/12/15 09:31:07;;;;;;;11.60;8.95;;;13.50;80.50;;;;;;5027069;28;20040;-74
2021/12/15 09:33:36;;;;;;;9.90;8.93;;;13.50;80.40;;;;;;5027301;28;20099;-74
2021/12/15 09:36:04;;;;;;;10.32;9.23;;;13.50;80.40;;;;;;5027540;28;20029;-73
2021/12/15 09:38:31;;;;;;;9.88;8.82;;;13.50;80.30;;;;;;5026573;28;20346;-74
2021/12/15 09:41:00;;;;;;;9.55;8.55;;;13.60;80.40;;;;;;5027401;28;20481;-72
2021/12/15 09:43:28;;;;;;;12.05;9.73;;;13.60;80.40;;;;;;5025333;28;20033;-74
2021/12/15 09:46:06;;;;;;;11.65;9.88;;;13.60;80.30;;;;;;5026795;28;20029;-73
2021/12/15 10:10:40;;;;;;;9.35;8.23;;;13.90;80.30;;;;;;5025327;28;20057;-73
2021/12/15 10:18:26;;;;;;;10.55;8.73;;;14.00;80.30;;;;;;5025700;28;20390;-73
2021/12/15 10:20:54;;;;;;;9.52;8.20;;;14.00;80.20;;;;;;5025135;28;20056;-73
2021/12/15 10:23:24;;;;;;;11.68;10.25;;;14.00;80.10;;;;;;5024189;28;20397;-74
2021/12/15 10:25:54;;;;;;;10.75;9.00;;;14.10;80.30;;;;;;5025883;28;20120;-72
2021/12/15 10:28:23;;;;;;;10.55;9.45;;;14.10;80.20;;;;;;5025593;28;20086;-73
2021/12/15 10:31:16;;;;;;;12.23;9.65;;;14.10;80.10;;;;;;5026171;28;20036;-74
2021/12/15 10:33:48;;;;;;;9.90;8.73;;;14.20;80.20;;;;;;5024711;28;20552;-73
2021/12/15 10:36:27;;;;;;;13.73;9.57;;;14.20;80.10;;;;;;5026101;28;20018;-73
2021/12/15 10:39:14;;;;;;;11.88;9.43;;;14.30;80.10;;;;;;5025821;28;20312;-73
2021/12/15 10:41:43;;;;;;;12.00;8.88;;;14.30;80.00;;;;;;5025422;28;20037;-72
2021/12/15 10:44:24;;;;;;;9.25;8.30;;;14.30;79.90;;;;;;5025499;28;20449;-73
2021/12/15 10:47:05;;;;;;;9.57;8.52;;;14.40;80.00;;;;;;5025820;28;20053;-73
2021/12/15 10:49:39;;;;;;;11.27;10.00;;;14.40;79.80;;;;;;5024250;28;20060;-73
2021/12/15 10:52:12;;;;;;;10.98;8.95;;;14.40;79.90;;;;;;5024228;28;20091;-73
2021/12/15 10:54:56;;;;;;;12.80;10.10;;;14.40;79.70;;;;;;5025374;28;20038;-72
2021/12/15 10:57:31;;;;;;;12.45;9.13;;;14.40;79.60;;;;;;5011997;28;20042;-73
2021/12/15 10:59:59;;;;;;;10.32;9.32;;;14.50;79.80;;;;;;5030054;28;20143;-73
2021/12/15 11:02:32;;;;;;;11.50;8.70;;;14.50;79.70;;;;;;5028388;28;20060;-73
2021/12/15 11:05:09;;;;;;;9.35;8.48;;;14.50;79.50;;;;;;5029574;28;20053;-73
2021/12/15 11:07:43;;;;;;;11.13;9.50;;;14.60;79.60;;;;;;5029782;28;20030;-73
2021/12/15 11:10:24;;;;;;;12.50;9.68;;;14.70;79.70;;;;;;5029611;28;20592;-73
2021/12/15 11:12:57;;;;;;;11.30;10.13;;;14.70;79.50;;;;;;5028605;28;20045;-72
2021/12/15 11:15:40;;;;;;;10.93;9.82;;;14.80;79.50;;;;;;5029233;28;20040;-72
2021/12/15 11:18:35;;;;;;;11.02;7.95;;;14.90;79.50;;;;;;5027360;28;20061;-73
2021/12/15 11:21:07;;;;;;;10.15;7.72;;;14.90;79.60;;;;;;5026900;28;20362;-73
2021/12/15 11:23:34;;;;;;;9.15;8.18;;;15.10;79.80;;;;;;5027940;28;20561;-72
2021/12/15 11:26:06;;;;;;;11.07;9.00;;;15.20;79.80;;;;;;5026758;28;20104;-72
2021/12/15 11:28:48;;;;;;;10.73;8.52;;;15.30;79.70;;;;;;5029037;28;20325;-73
2021/12/15 11:31:21;;;;;;;8.68;7.85;;;15.40;79.70;;;;;;5023983;28;20061;-72
2021/12/15 11:33:52;;;;;;;;;;;15.40;79.50;;;;;;5023943;28;20033;-72
2021/12/15 11:36:25;;;;;;;8.88;7.65;;;15.50;79.60;;;;;;5027592;28;20364;-73
2021/12/15 11:39:00;;;;;;;8.45;7.13;;;15.50;79.50;;;;;;5028748;28;20048;-73
2021/12/15 11:41:34;;;;;;;11.05;8.32;;;15.60;79.60;;;;;;5027543;28;20029;-73
2021/12/15 11:44:05;;;;;;;11.45;8.32;;;15.60;79.40;;;;;;5028057;28;20040;-73
2021/12/15 11:46:41;;;;;;;9.75;8.27;;;15.70;79.50;;;;;;5028387;28;20456;-73
2021/12/15 11:49:23;;;;;;;11.80;9.25;;;15.70;79.30;;;;;;5028891;28;20029;-73
2021/12/15 11:51:57;;;;;;;9.20;8.30;;;15.70;79.20;;;;;;5028910;28;20048;-73
2021/12/15 11:54:31;;;;;;;9.90;8.25;;;15.80;79.30;;;;;;5028586;28;20026;-73
2021/12/15 11:57:02;;;;;;;11.35;8.48;;;15.80;79.20;;;;;;5028646;28;20480;-72
2021/12/15 11:59:34;;;;;;;11.52;8.63;;;15.80;79.10;;;;;;5028206;28;20033;-73
2021/12/15 12:02:03;;;;;;;9.57;8.52;;;15.80;79.00;;;;;;5028485;28;20378;-73
2021/12/15 12:04:39;;;;;;;10.38;8.98;;;15.90;79.00;;;;;;5027927;28;20061;-73
2021/12/15 12:07:15;;;;;;;9.93;8.27;;;15.90;78.80;;;;;;5028464;28;20033;-73
2021/12/15 12:09:44;;;;;;;11.43;9.27;;;16.00;78.90;;;;;;5028180;28;20053;-72
2021/12/15 12:12:11;;;;;;;10.68;8.63;;;16.00;78.80;;;;;;5028549;28;20390;-73
2021/12/15 12:14:44;;;;;;;9.93;8.93;;;16.00;78.70;;;;;;5028418;28;20025;-73
2021/12/15 12:17:16;;;;;;;11.00;9.82;;;16.00;78.70;;;;;;5027725;28;20400;-73
2021/12/15 12:19:47;;;;;;;10.32;8.27;;;16.10;78.70;;;;;;5027928;28;20384;-73
2021/12/15 12:22:15;;;;;;;11.50;9.20;;;16.10;78.60;;;;;;5028027;28;20037;-72
2021/12/15 12:24:44;;;;;;;9.60;8.32;;;16.10;78.60;;;;;;5027683;28;20472;-72
2021/12/15 12:27:11;;;;;;;9.90;8.90;;;16.10;78.50;;;;;;5027592;28;20047;-73
2021/12/15 12:29:38;;;;;;;10.60;9.50;;;16.10;78.50;;;;;;5020216;28;20065;-74
2021/12/15 12:32:05;;;;;;;14.38;10.15;;;16.10;78.40;;;;;;5016912;28;20040;-74
2021/12/15 12:34:31;;;;;;;9.70;8.60;;;16.10;78.50;;;;;;5027513;28;20616;-73
2021/12/15 12:36:58;;;;;;;10.57;8.50;;;16.10;78.50;;;;;;5027174;28;20073;-74
2021/12/15 12:39:31;;;;;;;11.10;9.68;;;16.10;78.50;;;;;;5026037;28;20048;-73
2021/12/15 12:41:57;;;;;;;13.38;9.82;;;16.10;78.40;;;;;;5027774;28;20037;-73
2021/12/15 12:44:31;;;;;;;12.80;7.78;;;16.10;78.40;;;;;;5027507;28;20026;-73
2021/12/15 12:47:07;;;;;;;10.50;9.13;;;16.10;78.40;;;;;;5028054;28;20029;-73
2021/12/15 13:01:18;;;;;;;10.63;8.15;;;16.20;78.40;;;;;;5025638;28;20052;-73
2021/12/15 13:03:50;;;;;;;9.50;8.15;;;16.20;78.40;;;;;;5013870;28;20030;-72
2021/12/15 13:06:28;;;;;;;9.25;7.85;;;16.20;78.30;;;;;;5027331;28;20035;-72
2021/12/15 13:09:16;;;;;;;12.55;8.13;;;16.20;78.20;;;;;;5026664;28;20056;-74
2021/12/15 13:11:49;;;;;;;12.18;7.93;;;16.20;78.40;;;;;;5025508;28;20048;-74
2021/12/15 13:14:37;;;;;;;9.20;7.80;;;16.20;78.70;;;;;;5023655;28;20083;-72
2021/12/15 13:17:20;;;;;;;12.00;8.13;;;16.30;79.10;;;;;;5026423;28;20040;-73
2021/12/15 13:19:46;;;;;;;;;;;16.50;79.30;;;;;;5026907;28;20026;-73
2021/12/15 13:28:44;;;;;;;11.23;7.75;;;16.80;78.90;;;;;;5007359;28;20045;-72
2021/12/15 13:31:26;;;;;;;11.52;6.97;;;16.90;78.90;;;;;;5018220;28;20060;-72
2021/12/15 13:33:57;;;;;;;13.13;7.95;;;16.90;78.80;;;;;;5026123;28;20103;-73
2021/12/15 13:36:29;;;;;;;11.00;7.85;;;16.80;78.70;;;;;;5025701;28;20504;-73
2021/12/15 13:38:55;;;;;;;11.70;8.23;;;16.80;78.80;;;;;;5026422;28;20504;-73
2021/12/15 13:44:15;;;;;;;10.93;8.10;;;16.60;78.60;;;;;;5026296;28;20567;-73
2021/12/15 13:46:41;;;;;;;8.93;7.90;;;16.60;78.70;;;;;;4992642;28;20120;-73
2021/12/15 13:49:21;;;;;;;9.63;8.52;;;16.50;78.70;;;;;;5025756;28;20500;-72
2021/12/15 13:51:54;;;;;;;10.73;7.40;;;16.50;78.70;;;;;;5026031;28;20401;-75
2021/12/15 13:54:21;;;;;;;12.02;8.52;;;16.40;78.60;;;;;;5026465;28;20487;-73
2021/12/15 13:56:54;;;;;;;9.27;8.25;;;16.30;78.50;;;;;;5026027;28;20041;-73
2021/12/15 13:59:58;;;;;;;9.48;8.48;;;16.30;78.60;;;;;;5026496;28;20389;-74
2021/12/15 14:02:42;;;;;;;10.23;8.27;;;16.20;78.40;;;;;;5025898;28;20509;-72
2021/12/15 14:05:39;;;;;;;10.95;7.80;;;16.10;78.30;;;;;;5025829;28;20103;-73
2021/12/15 14:08:12;;;;;;;10.20;9.07;;;16.10;78.50;;;;;;5026309;28;20372;-73
2021/12/15 14:10:54;;;;;;;11.07;9.00;;;16.10;78.60;;;;;;5024711;28;20036;-73
2021/12/15 14:13:22;;;;;;;11.25;8.23;;;16.00;78.50;;;;;;5024929;28;20499;-73
2021/12/15 14:15:50;;;;;;;10.23;9.13;;;15.90;78.40;;;;;;5024751;28;20052;-73
2021/12/15 14:18:31;;;;;;;9.23;8.25;;;15.90;78.40;;;;;;5026060;28;20444;-73
2021/12/15 14:21:16;;;;;;;11.77;9.38;;;15.80;78.30;;;;;;5026112;28;20075;-73
2021/12/15 14:23:48;;;;;;;10.48;8.80;;;15.80;78.40;;;;;;5026443;28;20029;-74
2021/12/15 14:26:20;;;;;;;9.75;8.75;;;15.70;78.30;;;;;;5023962;28;20030;-74
2021/12/15 14:28:54;;;;;;;10.30;8.95;;;15.70;78.40;;;;;;5013841;28;20033;-73
2021/12/15 14:31:27;;;;;;;12.43;8.73;;;15.70;78.40;;;;;;5020679;28;20033;-74
2021/12/15 14:33:54;;;;;;;;;;;15.60;78.30;;;;;;5019781;28;20030;-74